Latest Weather Observations for Cape Naturaliste

IDW60801

Issued at 7:35 am WST Wednesday 3 September 2014 (issued every 30 minutes, with the page automatically refreshed every 10 minutes)

About weather observations | Map of weather stations | Latest weather observations for WA | Other Formats
Station Details ID: 009519 Name: CAPE NATURALISTE Lat: -33.54 Lon: 115.02 Height: 109.0 m
Data from the previous 72 hours. | See also: Recent months at Cape Naturaliste
Date/Time
WST
Temp
°C
App
Temp
°C
Dew
Point
Rel
Hum
%
Delta-T
°C
Wind Press
QNH
hPa
Press
MSL
hPa
Rain
since 9 am
mm
Dir
 
Spd
km/h
Gust
km/h
Spd
kts
Gust
kts
03/07:30am 10.0 6.7 6.3 78 1.7 S 13 17 7 9 1023.0 1023.0 0.0
03/07:00am 9.0 5.4 5.2 77 1.7 SSE 13 17 7 9 1022.6 1022.6 0.0
03/06:30am 9.4 4.8 5.4 76 1.8 SSE 19 22 10 12 1022.4 1022.3 0.0
03/06:00am 9.8 5.0 5.8 76 1.8 SSE 20 26 11 14 1021.9 1021.8 0.0
03/05:30am 9.5 4.9 5.5 76 1.8 S 19 22 10 12 1021.7 1021.6 0.0
03/05:00am 9.8 5.0 5.6 75 1.9 S 20 26 11 14 1021.5 1021.4 0.0
03/04:30am 10.3 5.3 6.3 76 1.9 S 22 28 12 15 1020.9 1020.8 0.0
03/04:00am 10.4 5.1 6.9 79 1.7 S 24 32 13 17 1020.5 1020.4 0.0
03/03:30am 10.5 6.0 7.0 79 1.7 SSE 20 24 11 13 1020.5 1020.4 0.0
03/03:00am 11.0 6.2 7.3 78 1.8 S 22 30 12 16 1020.3 1020.2 0.0
03/02:30am 11.5 7.2 8.0 79 1.7 S 20 26 11 14 1020.7 1020.6 0.0
03/02:00am 11.3 7.2 8.0 80 1.6 S 19 24 10 13 1020.9 1020.8 0.0
03/01:30am 11.6 8.0 8.3 80 1.6 S 17 22 9 12 1020.9 1020.8 0.0
03/01:00am 11.4 7.4 8.3 81 1.5 S 19 22 10 12 1020.8 1020.7 0.0
03/12:30am 11.8 7.9 8.5 80 1.6 S 19 22 10 12 1020.5 1020.4 0.0
03/12:00am 12.3 8.3 9.0 80 1.7 S 20 26 11 14 1020.2 1020.1 0.0
 
Date/Time
WST
Temp
°C
App
Temp
°C
Dew
Point
Rel
Hum
%
Delta-T
°C
Wind Press
QNH
hPa
Press
MSL
hPa
Rain
since 9 am
mm
Dir
 
Spd
km/h
Gust
km/h
Spd
kts
Gust
kts
02/11:30pm 12.4 7.7 9.1 80 1.7 S 24 30 13 16 1020.2 1020.1 0.0
02/11:00pm 12.7 8.0 9.3 80 1.7 S 24 30 13 16 1020.5 1020.4 0.0
02/10:30pm 13.1 8.2 9.9 81 1.7 S 26 35 14 19 1020.1 1020.0 0.0
02/10:00pm 13.3 9.3 10.3 82 1.6 S 22 28 12 15 1020.2 1020.1 0.0
02/09:30pm 13.2 9.7 10.2 82 1.6 S 19 24 10 13 1019.9 1019.8 0.0
02/09:00pm 13.7 9.8 10.9 83 1.5 S 22 28 12 15 1019.8 1019.7 0.0
02/08:30pm 14.2 10.5 11.4 83 1.5 S 22 30 12 16 1019.7 1019.6 0.0
02/08:00pm 14.5 9.7 11.6 83 1.6 SSW 28 37 15 20 1019.4 1019.3 0.0
02/07:30pm 14.9 9.4 12.0 83 1.6 SSW 32 43 17 23 1019.2 1019.1 0.0
02/07:00pm 15.2 11.0 12.3 83 1.6 SSW 26 35 14 19 1018.6 1018.6 0.0
02/06:30pm 15.6 12.2 12.5 82 1.7 SW 22 28 12 15 1017.8 1017.8 0.0
02/06:00pm 15.9 12.2 12.6 81 1.8 SW 24 30 13 16 1017.9 1017.9 0.0
02/05:30pm 16.1 12.7 12.5 79 2.0 SW 22 28 12 15 1017.2 1017.2 0.0
02/05:00pm 16.6 13.3 12.9 79 2.1 SW 22 28 12 15 1016.6 1016.6 0.0
02/04:30pm 16.7 12.5 12.3 75 2.4 WSW 26 32 14 17 1016.3 1016.3 0.0
02/04:00pm 17.1 14.4 11.6 70 3.0 SW 17 24 9 13 1016.1 1016.1 0.0
02/03:30pm 17.7 14.6 11.7 68 3.3 WSW 19 26 10 14 1015.9 1015.9 0.0
02/03:00pm 18.7 15.5 11.8 64 3.8 WSW 20 26 11 14 1015.7 1015.7 0.0
02/02:30pm 19.8 15.8 11.8 60 4.5 WSW 24 28 13 15 1015.6 1015.6 0.0
02/02:00pm 19.7 16.9 12.7 64 4.0 W 19 24 10 13 1015.7 1015.7 0.0
02/01:30pm 18.9 16.8 12.4 66 3.6 W 15 20 8 11 1015.8 1015.8 0.0
02/01:00pm 17.7 16.4 11.3 66 3.5 NNW 9 15 5 8 1015.8 1015.8 0.0
02/12:30pm 17.5 16.2 11.1 66 3.5 WNW 9 13 5 7 1015.6 1015.6 0.0
02/12:00pm 17.9 17.0 11.5 66 3.5 NNW 7 11 4 6 1015.8 1015.8 0.0
02/11:30am 17.0 15.8 11.7 71 2.9 NNW 9 11 5 6 1016.6 1016.6 0.0
02/11:00am 16.3 15.0 11.2 72 2.8 NNE 9 13 5 7 1016.8 1016.8 0.0
02/10:30am 16.6 14.9 11.1 70 3.0 NE 11 15 6 8 1016.6 1016.6 0.0
02/10:00am 16.7 15.4 11.2 70 3.0 NE 9 13 5 7 1016.8 1016.8 0.0
02/09:30am 16.2 14.0 10.9 71 2.8 NNE 13 17 7 9 1016.8 1016.8 0.0
02/09:00am 15.2 11.8 9.3 68 3.0 NNE 17 20 9 11 1016.9 1016.9 0.0
02/08:30am 14.3 11.7 9.5 73 2.5 NE 13 20 7 11 1016.8 1016.8 0.0
02/08:00am 13.0 9.6 9.3 78 1.9 E 17 19 9 10 1016.4 1016.4 0.0
02/07:30am 13.3 10.0 9.4 77 2.0 E 17 20 9 11 1016.3 1016.3 0.0
02/07:00am 12.8 9.3 8.9 77 2.0 E 17 19 9 10 1016.6 1016.6 0.0
02/06:30am 12.3 9.0 8.2 76 2.0 E 15 20 8 11 1016.4 1016.4 0.0
02/06:00am 11.4 7.5 7.3 76 2.0 ESE 17 19 9 10 1016.5 1016.5 0.0
02/05:30am 11.1 6.8 6.8 75 2.0 SE 19 20 10 11 1016.2 1016.2 0.0
02/05:00am 11.0 6.4 6.6 74 2.1 ESE 20 24 11 13 1015.9 1015.9 0.0
02/04:30am 11.2 6.8 6.7 74 2.1 SE 19 22 10 12 1016.3 1016.3 0.0
02/04:00am 11.2 7.3 7.1 76 2.0 SE 17 19 9 10 1016.7 1016.7 0.0
02/03:30am 11.6 7.7 7.3 75 2.1 ESE 17 20 9 11 1017.1 1017.1 0.0
02/03:00am 11.4 7.5 6.9 74 2.1 ESE 17 20 9 11 1017.6 1017.6 0.0
02/02:30am 11.7 7.8 7.0 73 2.3 ESE 17 20 9 11 1018.0 1018.0 0.0
02/02:00am 11.6 7.6 6.5 71 2.4 ESE 17 20 9 11 1018.4 1018.4 0.0
02/01:30am 11.5 7.0 6.2 70 2.5 ESE 19 20 10 11 1018.6 1018.6 0.0
02/01:00am 11.2 6.4 5.7 69 2.6 ESE 20 22 11 12 1019.0 1018.9 0.0
02/12:30am 11.3 6.4 5.2 66 2.8 ESE 20 24 11 13 1019.1 1019.0 0.0
02/12:00am 11.2 6.3 4.2 62 3.1 ESE 19 22 10 12 1019.6 1019.5 0.0
 
Date/Time
WST
Temp
°C
App
Temp
°C
Dew
Point
Rel
Hum
%
Delta-T
°C
Wind Press
QNH
hPa
Press
MSL
hPa
Rain
since 9 am
mm
Dir
 
Spd
km/h
Gust
km/h
Spd
kts
Gust
kts
01/11:30pm 11.2 6.2 3.7 60 3.3 ESE 19 20 10 11 1019.6 1019.5 0.0
01/11:00pm 11.3 6.7 3.8 60 3.3 ESE 17 20 9 11 1019.7 1019.6 0.0
01/10:30pm 11.1 7.0 4.1 62 3.1 SE 15 17 8 9 1020.4 1020.3 0.0
01/10:00pm 11.1 6.7 4.6 64 2.9 SE 17 20 9 11 1020.2 1020.1 0.0
01/09:30pm 11.5 7.6 5.2 65 2.9 ESE 15 19 8 10 1020.8 1020.7 0.0
01/09:00pm 11.3 7.7 5.2 66 2.8 SE 13 17 7 9 1021.4 1021.3 0.0
01/08:30pm 11.1 7.5 5.0 66 2.8 SE 13 15 7 8 1021.1 1021.0 0.0
01/08:00pm 10.7 7.0 4.6 66 2.7 SE 13 17 7 9 1021.1 1021.0 0.0
01/07:30pm 10.8 6.4 4.5 65 2.8 SE 17 19 9 10 1021.1 1021.0 0.0
01/07:00pm 11.1 7.0 4.6 64 2.9 ESE 15 17 8 9 1020.7 1020.6 0.0
01/06:30pm 11.1 7.4 4.6 64 3.0 E 13 15 7 8 1021.3 1021.2 0.0
01/06:00pm 11.0 6.9 4.2 63 3.0 ESE 15 17 8 9 1021.3 1021.2 0.0
01/05:30pm 12.4 8.4 4.9 60 3.5 E 15 19 8 10 1021.0 1020.9 0.0
01/05:00pm 12.9 8.2 3.3 52 4.3 E 17 20 9 11 1021.1 1021.0 0.0
01/04:30pm 14.9 10.1 4.6 50 4.8 ENE 19 22 10 12 1020.9 1020.8 0.0
01/04:00pm 14.1 9.1 3.8 50 4.7 ENE 19 26 10 14 1021.2 1021.1 0.0
01/03:30pm 15.4 11.1 5.3 51 4.8 E 17 22 9 12 1021.1 1021.0 0.0
01/03:00pm 16.0 11.5 5.9 51 4.9 ENE 19 24 10 13 1021.1 1021.0 0.0
01/02:30pm 15.5 10.7 5.4 51 4.8 ENE 20 26 11 14 1021.2 1021.1 0.0
01/02:00pm 15.9 11.4 6.1 52 4.8 NE 19 24 10 13 1021.6 1021.5 0.0
01/01:30pm 15.6 11.0 6.3 54 4.5 ENE 20 30 11 16 1021.5 1021.4 0.0
01/01:00pm 14.8 10.1 6.1 56 4.2 ENE 20 26 11 14 1022.1 1022.0 0.0
01/12:30pm 15.1 10.3 5.6 53 4.5 NE 20 28 11 15 1022.7 1022.7 0.0
01/12:00pm 15.8 11.2 6.5 54 4.5 NE 20 28 11 15 1023.3 1023.3 0.0
01/11:30am 15.8 11.1 7.6 58 4.1 NE 22 30 12 16 1023.7 1023.7 0.0
01/11:00am 15.5 10.5 8.0 61 3.8 ENE 24 33 13 18 1023.9 1023.9 0.0
01/10:30am 14.2 9.1 7.7 65 3.2 ENE 24 32 13 17 1023.9 1023.9 0.0
01/10:00am 14.1 8.7 7.9 66 3.1 ENE 26 32 14 17 1024.0 1024.0 0.0
01/09:30am 13.3 7.8 7.7 69 2.8 ENE 26 32 14 17 1024.0 1024.0 0.0
01/09:00am 12.9 7.0 7.4 69 2.7 ENE 28 35 15 19 1023.7 1023.7 0.0
01/08:30am 12.5 8.0 8.4 76 2.0 ENE 22 30 12 16 1023.9 1023.9 0.0
01/08:00am 10.6 6.6 8.2 85 1.2 E 19 26 10 14 1023.8 1023.8 0.0
01/07:30am 8.5 4.1 6.5 87 0.9 ESE 19 20 10 11 1023.7 1023.7 0.0
01/07:00am 7.4 3.1 5.4 87 0.9 ESE 17 20 9 11 1023.5 1023.5 0.0
01/06:30am 7.2 2.5 5.0 86 1.0 ESE 19 22 10 12 1023.2 1023.2 0.0
01/06:00am 7.2 2.5 5.0 86 1.0 SE 19 22 10 12 1023.1 1023.1 0.0
01/05:30am 7.1 2.7 4.9 86 1.0 ESE 17 20 9 11 1022.9 1022.9 0.0
01/05:00am 7.1 2.3 4.9 86 1.0 ESE 19 20 10 11 1022.6 1022.6 0.0
01/04:30am 7.0 2.2 4.7 85 1.0 ESE 19 22 10 12 1022.3 1022.3 0.0
01/04:00am 6.8 1.9 4.3 84 1.1 ESE 19 20 10 11 1022.4 1022.4 0.0
01/03:30am 6.9 2.1 4.4 84 1.1 SE 19 20 10 11 1022.3 1022.3 0.0
01/03:00am 7.1 2.7 4.6 84 1.1 SE 17 20 9 11 1022.3 1022.3 0.0
01/02:30am 7.3 2.9 4.6 83 1.2 SE 17 20 9 11 1022.4 1022.4 0.0
01/02:00am 7.4 3.0 4.5 82 1.3 SE 17 20 9 11 1022.4 1022.4 0.0
01/01:30am 7.6 3.2 4.7 82 1.3 ESE 17 19 9 10 1022.5 1022.5 0.0
01/01:00am 7.6 3.5 4.6 81 1.3 SE 15 19 8 10 1022.5 1022.5 0.0
01/12:30am 7.7 3.7 4.7 81 1.3 SE 15 17 8 9 1022.5 1022.5 0.0
01/12:00am 7.6 3.2 4.6 81 1.3 SE 17 20 9 11 1022.4 1022.4 0.0
 
Date/Time
WST
Temp
°C
App
Temp
°C
Dew
Point
Rel
Hum
%
Delta-T
°C
Wind Press
QNH
hPa
Press
MSL
hPa
Rain
since 9 am
mm
Dir
 
Spd
km/h
Gust
km/h
Spd
kts
Gust
kts
31/11:30pm 7.8 3.4 4.7 81 1.4 SE 17 19 9 10 1022.5 1022.5 0.0
31/11:00pm 8.0 3.6 4.9 81 1.4 SE 17 19 9 10 1022.8 1022.8 0.0
31/10:30pm 8.2 3.8 5.0 80 1.4 SE 17 20 9 11 1023.0 1023.0 0.0
31/10:00pm 8.5 4.2 5.1 79 1.5 SE 17 20 9 11 1023.2 1023.2 0.0
31/09:30pm 8.9 4.6 5.1 77 1.7 SSE 17 20 9 11 1023.1 1023.1 0.0
31/09:00pm 9.2 4.5 5.2 76 1.8 SSE 19 22 10 12 1022.6 1022.6 0.0
31/08:30pm 9.4 4.7 5.0 74 2.0 SSE 19 26 10 14 1022.3 1022.3 0.0
31/08:00pm 9.8 4.9 5.0 72 2.2 SSE 20 26 11 14 1022.0 1022.0 0.0
31/07:30pm 9.6 4.8 4.4 70 2.3 SSE 19 20 10 11 1021.7 1021.7 0.0
31/07:00pm 9.8 5.3 4.4 69 2.4 SSE 17 20 9 11 1021.6 1021.6 0.0
31/06:30pm 10.6 6.2 4.5 66 2.8 S 17 22 9 12 1021.2 1021.2 0.0
31/06:00pm 11.6 6.3 4.8 63 3.1 S 22 30 12 16 1020.9 1020.9 0.0
31/05:30pm 12.8 7.6 5.5 61 3.4 SSW 22 30 12 16 1020.8 1020.8 0.0
31/05:00pm 13.9 9.3 6.7 62 3.5 SSW 20 30 11 16 1020.8 1020.8 0.0
31/04:30pm 14.7 10.1 6.3 57 4.1 SSW 20 28 11 15 1020.2 1020.2 0.0
31/04:00pm 15.1 10.5 6.4 56 4.2 SSW 20 28 11 15 1019.9 1019.8 0.0
31/03:30pm 15.2 10.1 6.2 55 4.4 SSW 22 32 12 17 1019.8 1019.7 0.0
31/03:00pm 15.7 11.2 7.0 56 4.3 SSW 20 26 11 14 1019.7 1019.6 0.0
31/02:30pm 15.2 10.6 6.7 57 4.2 SSW 20 30 11 16 1019.5 1019.4 0.0
31/02:00pm 15.6 11.3 7.9 60 3.9 SSW 20 30 11 16 1019.5 1019.4 0.0
31/01:30pm 16.5 12.0 6.9 53 4.8 SW 20 26 11 14 1019.6 1019.5 0.0
31/01:00pm 16.0 11.4 6.7 54 4.6 SSW 20 28 11 15 1019.2 1019.1 0.0
31/12:30pm 15.9 11.6 7.7 58 4.1 SW 20 30 11 16 1019.5 1019.4 0.0
31/12:00pm 15.9 12.1 9.1 64 3.5 SSW 19 28 10 15 1019.8 1019.7 0.0
31/11:30am 14.6 10.3 7.9 64 3.4 SSW 20 30 11 16 1019.9 1019.8 0.0
31/11:00am 14.3 10.5 8.9 70 2.7 S 19 30 10 16 1020.0 1019.9 0.0
31/10:30am 14.4 12.6 10.8 79 1.9 SW 11 17 6 9 1020.3 1020.3 0.0
31/10:00am 13.6 12.3 11.1 85 1.3 S 9 17 5 9 1020.2 1020.2 0.0
31/09:30am 12.7 11.3 10.8 88 1.0 SSE 9 11 5 6 1020.1 1020.0 0.0
31/09:00am 12.5 10.7 10.7 89 0.9 SE 11 15 6 8 1020.1 1020.0 5.4
31/08:30am 10.6 9.0 8.9 89 0.8 ESE 7 9 4 5 1020.0 1019.9 5.4
31/08:00am 10.6 8.3 8.9 89 0.8 SE 11 15 6 8 1019.6 1019.5 5.2

Other Formats:

Comma delimited format used in spreadsheet applications
http://www.bom.gov.au/fwo/IDW60801/IDW60801.94600.axf

JavaScript Object Notation format (JSON) in row-major order
http://www.bom.gov.au/fwo/IDW60801/IDW60801.94600.json